Startpagina
METAR-TAF:

METAR-TAF

Vliegvelden :

Vliegbasis Woensdrecht

Woensdrecht, Nederland

breedte: 51-27N, lengte: 004-20E, hoogte: 20 m

Actueel weer

Dit bericht is 27 minuten geleden gemaakt, om 15:05 UTC
Wind 3 kt uit het zuidoosten, variërend tussen het oosten en het zuiden
Temperatuur 11°C
Vochtigheid 82%
Druk 1025 hPa
Zicht 10 km of meer
Geheel bewolkt op 35000 ft

METAR: EHWO 141505Z AUTO 13003KT 100V190 9999 OVC350 11/08 Q1025 BLU

Tijdstip: 16:32 (15:32 UTC)

Verwachting

Dit bericht is 6 uur en het 16 minuten geleden gemaakt, om 09:16 UTC
Verwachting geldig van 14 om 10 UTC tot 14 om 22 UTC
Wind 5 kt uit het zuiden
Zicht 10 km of meer
geen wolken onder 1500 m en geen cumulonimbus
Wijzigt naar
van 14 om 12 UTC tot 14 om 15 UTC
Wind 4 kt uit het zuidoosten

TAF: EHWO 140916Z 1410/1422 17005KT CAVOK BECMG 1412/1415 14004KT

Waarnemingen en weersverwachtingen van meer dan 4000 vliegvelden (METAR en TAF).

De beschikbare stations zijn de gele en rode punten op de kaart.

Ga met uw muis naar het station om de naam te zien.

Klik dan om waarnemingen en weersverwachtingen te zien.

kaart wijzigen: klik op de groene knoppen met een zwart kruis om in te zoomen, op de groene knop met een streepje om uit te zoomen of op de groene pijlen voor aangrenzende kaarten.


METAR-TAF: